Time;durP1;ratioP1;P1;durP2;ratioP2;P2;SDS_P1;SDS_P2;PMS_P1;PMS_P2;Temp;Humidity;BMP_temperature;BMP_pressure;BME280_temperature;BME280_humidity;BME280_pressure;Samples;Min_cycle;Max_cycle;Signal;HPM_P1;HPM_P2
2023/08/30 00:00:05;;;;;;;7.23;6.53;;;15.60;99.90;;;;;;5095835;28;20191;-80
2023/08/30 00:02:30;;;;;;;8.50;6.60;;;15.60;99.90;;;;;;5096051;28;20655;-80
2023/08/30 00:04:59;;;;;;;8.90;6.40;;;15.60;99.90;;;;;;5095921;28;20172;-80
2023/08/30 00:07:26;;;;;;;8.40;5.83;;;15.60;99.90;;;;;;5095749;28;20194;-80
2023/08/30 00:09:51;;;;;;;7.03;6.20;;;15.60;99.90;;;;;;5094533;28;20171;-80
2023/08/30 00:12:17;;;;;;;8.23;5.70;;;15.60;99.90;;;;;;5095467;28;20172;-80
2023/08/30 00:14:42;;;;;;;6.37;5.77;;;15.60;99.90;;;;;;5094262;28;20643;-80
2023/08/30 00:17:09;;;;;;;6.10;5.60;;;15.60;99.90;;;;;;5095671;28;20167;-80
2023/08/30 00:19:34;;;;;;;9.47;6.10;;;15.60;99.90;;;;;;5095399;28;20257;-79
2023/08/30 00:22:00;;;;;;;6.50;5.83;;;15.60;99.90;;;;;;5095530;28;20208;-81
2023/08/30 00:24:26;;;;;;;7.50;5.53;;;15.60;99.90;;;;;;5095460;28;20728;-79
2023/08/30 00:26:51;;;;;;;8.27;6.03;;;15.50;99.90;;;;;;5095452;28;20176;-80
2023/08/30 00:29:17;;;;;;;6.67;5.73;;;15.40;99.90;;;;;;5095217;28;20164;-80
2023/08/30 00:31:42;;;;;;;8.03;6.03;;;15.30;99.90;;;;;;5095501;28;20506;-80
2023/08/30 00:34:08;;;;;;;8.73;6.13;;;15.20;99.90;;;;;;5095163;28;20215;-80
2023/08/30 00:36:34;;;;;;;10.03;6.10;;;15.20;99.90;;;;;;5095275;28;20703;-79
2023/08/30 00:38:59;;;;;;;7.03;6.30;;;15.10;99.90;;;;;;5095178;28;20168;-79
2023/08/30 00:41:25;;;;;;;6.70;5.70;;;15.10;99.90;;;;;;5094922;28;20179;-79
2023/08/30 00:43:50;;;;;;;8.30;6.10;;;15.10;99.90;;;;;;5094752;28;20179;-79
2023/08/30 00:46:16;;;;;;;6.30;5.67;;;15.00;99.90;;;;;;5095033;28;20247;-79
2023/08/30 00:48:43;;;;;;;7.40;6.20;;;15.00;99.90;;;;;;5095060;28;20180;-79
2023/08/30 00:51:09;;;;;;;7.40;6.40;;;14.90;99.90;;;;;;5094831;28;20172;-79
2023/08/30 00:53:34;;;;;;;6.77;5.77;;;14.80;99.90;;;;;;5094576;28;20207;-79
2023/08/30 00:56:00;;;;;;;8.77;6.60;;;14.80;99.90;;;;;;5094694;28;20171;-79
2023/08/30 00:58:26;;;;;;;11.27;6.50;;;14.70;99.90;;;;;;5094514;28;20179;-79
2023/08/30 01:00:52;;;;;;;11.47;6.67;;;14.70;99.90;;;;;;5094641;28;20233;-79
2023/08/30 01:03:20;;;;;;;6.63;5.93;;;14.60;99.90;;;;;;5094761;28;20185;-79
2023/08/30 01:05:45;;;;;;;6.83;6.10;;;14.60;99.90;;;;;;5093151;28;20167;-79
2023/08/30 01:08:11;;;;;;;6.57;5.97;;;14.60;99.90;;;;;;5094602;28;20658;-79
2023/08/30 01:11:16;;;;;;;7.80;6.33;;;14.60;99.90;;;;;;5094569;28;20563;-79
2023/08/30 01:13:46;;;;;;;8.70;5.70;;;14.60;99.90;;;;;;5094496;28;20203;-80
2023/08/30 01:16:12;;;;;;;7.03;5.80;;;14.50;99.90;;;;;;5094451;28;20175;-80
2023/08/30 01:18:39;;;;;;;6.87;6.20;;;14.50;99.90;;;;;;5094170;28;20609;-80
2023/08/30 01:21:11;;;;;;;7.00;6.20;;;14.50;99.90;;;;;;5094136;28;20217;-79
2023/08/30 01:23:52;;;;;;;7.50;6.00;;;14.50;99.90;;;;;;5094416;28;20191;-79
2023/08/30 01:26:47;;;;;;;6.73;5.73;;;14.50;99.90;;;;;;5093959;28;20170;-80
2023/08/30 01:29:15;;;;;;;8.37;6.50;;;14.50;99.90;;;;;;5079564;28;20191;-80
2023/08/30 01:31:42;;;;;;;7.57;6.60;;;14.40;99.90;;;;;;5092947;28;20182;-80
2023/08/30 01:34:08;;;;;;;8.40;6.33;;;14.40;99.90;;;;;;5094039;28;20207;-79
2023/08/30 01:36:35;;;;;;;7.43;6.57;;;14.40;99.90;;;;;;5092890;28;20179;-79
2023/08/30 01:39:01;;;;;;;10.23;6.80;;;14.40;99.90;;;;;;5092794;28;20266;-79
2023/08/30 01:41:29;;;;;;;10.37;7.17;;;14.40;99.90;;;;;;5093640;28;20200;-79
2023/08/30 01:43:56;;;;;;;6.93;6.33;;;14.40;99.90;;;;;;5093852;28;20208;-79
2023/08/30 01:46:23;;;;;;;7.27;6.50;;;14.30;99.90;;;;;;5094109;28;20191;-79
2023/08/30 01:48:50;;;;;;;7.63;6.90;;;14.30;99.90;;;;;;5094191;28;20172;-78
2023/08/30 01:51:16;;;;;;;7.90;7.17;;;14.30;99.90;;;;;;5094092;28;20172;-79
2023/08/30 01:53:44;;;;;;;9.87;6.60;;;14.30;99.90;;;;;;5093742;28;20220;-79
2023/08/30 01:56:10;;;;;;;7.40;6.47;;;14.30;99.90;;;;;;5093470;28;20178;-79
2023/08/30 01:58:35;;;;;;;8.13;6.40;;;14.30;99.90;;;;;;5092452;28;20172;-79
2023/08/30 02:01:01;;;;;;;10.03;7.17;;;14.30;99.90;;;;;;5093620;28;20179;-79
2023/08/30 02:03:27;;;;;;;8.63;6.73;;;14.20;99.90;;;;;;5091909;28;20207;-77
2023/08/30 02:06:24;;;;;;;6.73;6.13;;;14.20;99.90;;;;;;5093695;28;20176;-79
2023/08/30 02:09:11;;;;;;;8.97;6.60;;;14.20;99.90;;;;;;5089136;28;20191;-78
2023/08/30 02:11:37;;;;;;;6.47;5.73;;;14.30;99.90;;;;;;5093824;28;20180;-79
2023/08/30 02:14:07;;;;;;;9.07;6.70;;;14.40;99.90;;;;;;5093464;28;20204;-79
2023/08/30 02:16:33;;;;;;;9.63;6.60;;;14.50;99.90;;;;;;5092318;28;20536;-79
2023/08/30 02:18:59;;;;;;;7.00;6.20;;;14.60;99.90;;;;;;5093170;28;20820;-80
2023/08/30 02:21:26;;;;;;;7.70;6.17;;;14.60;99.90;;;;;;5093364;28;20164;-79
2023/08/30 02:23:52;;;;;;;6.17;5.57;;;14.70;99.90;;;;;;5093148;28;20176;-78
2023/08/30 02:26:21;;;;;;;6.30;5.60;;;14.80;99.90;;;;;;5093320;28;20168;-79
2023/08/30 02:28:46;;;;;;;5.63;5.23;;;14.90;99.90;;;;;;5093416;28;20190;-79
2023/08/30 02:31:12;;;;;;;6.20;5.60;;;14.80;99.90;;;;;;5093319;28;20171;-78
2023/08/30 02:33:38;;;;;;;6.20;5.70;;;14.80;99.90;;;;;;5091976;28;20203;-78
2023/08/30 02:36:04;;;;;;;9.90;5.93;;;14.90;99.90;;;;;;5093093;28;20164;-78
2023/08/30 02:38:30;;;;;;;6.97;5.50;;;14.90;99.90;;;;;;5093151;28;20670;-78
2023/08/30 02:40:55;;;;;;;6.10;5.50;;;14.90;99.90;;;;;;5093215;28;20222;-79
2023/08/30 02:43:21;;;;;;;5.80;5.30;;;15.00;99.90;;;;;;5091932;28;20178;-77
2023/08/30 02:45:47;;;;;;;5.47;4.97;;;15.10;99.90;;;;;;5093241;28;20175;-78
2023/08/30 02:48:14;;;;;;;5.87;5.20;;;15.20;99.90;;;;;;5092051;28;20172;-78
2023/08/30 02:50:39;;;;;;;6.70;5.33;;;15.20;99.90;;;;;;5093157;28;20169;-78
2023/08/30 02:53:08;;;;;;;6.53;5.23;;;15.10;99.90;;;;;;5092592;28;20213;-77
2023/08/30 02:55:34;;;;;;;6.07;5.47;;;15.20;99.90;;;;;;5091778;28;20176;-78
2023/08/30 02:57:59;;;;;;;9.33;5.30;;;15.30;99.90;;;;;;5091879;28;20180;-79
2023/08/30 03:00:25;;;;;;;6.40;4.87;;;15.20;99.90;;;;;;5093229;28;20225;-79
2023/08/30 03:02:51;;;;;;;5.60;5.03;;;15.20;99.90;;;;;;5092980;28;20167;-78
2023/08/30 03:05:18;;;;;;;7.07;5.30;;;15.20;99.90;;;;;;5092896;28;20172;-79
2023/08/30 03:07:43;;;;;;;5.57;5.07;;;15.20;99.90;;;;;;5092804;28;20190;-79
2023/08/30 03:10:09;;;;;;;7.80;5.90;;;15.20;99.90;;;;;;5093233;28;20263;-79
2023/08/30 03:12:35;;;;;;;8.77;6.50;;;15.20;99.90;;;;;;5093019;28;20172;-79
2023/08/30 03:15:01;;;;;;;9.73;6.20;;;15.10;99.90;;;;;;5094509;28;20179;-79
2023/08/30 03:17:27;;;;;;;9.70;6.27;;;15.10;99.90;;;;;;5096543;28;20694;-79
2023/08/30 03:19:53;;;;;;;8.57;6.27;;;15.10;99.90;;;;;;5096250;28;20693;-78
2023/08/30 03:22:18;;;;;;;10.20;6.73;;;15.10;99.90;;;;;;5096156;28;20530;-79
2023/08/30 03:24:44;;;;;;;9.57;6.37;;;15.10;99.90;;;;;;5096619;28;20175;-78
2023/08/30 03:27:10;;;;;;;9.43;6.47;;;15.10;99.90;;;;;;5096393;28;20635;-78
2023/08/30 03:29:35;;;;;;;7.63;6.17;;;15.10;99.90;;;;;;5096558;28;20255;-78
2023/08/30 03:32:01;;;;;;;8.93;6.23;;;15.20;99.90;;;;;;5095973;28;20513;-79
2023/08/30 03:34:26;;;;;;;9.03;6.40;;;15.30;99.90;;;;;;5095861;28;20219;-79
2023/08/30 03:36:54;;;;;;;10.63;6.90;;;15.30;99.90;;;;;;5096040;28;20214;-79
2023/08/30 03:39:21;;;;;;;8.77;6.10;;;15.30;99.90;;;;;;5096267;28;20274;-79
2023/08/30 03:41:46;;;;;;;11.10;7.10;;;15.30;99.90;;;;;;5096015;28;20179;-80
2023/08/30 03:44:12;;;;;;;9.77;7.00;;;15.30;99.90;;;;;;5096237;28;20183;-79
2023/08/30 03:46:38;;;;;;;8.40;6.20;;;15.30;99.90;;;;;;5096227;28;20172;-79
2023/08/30 03:49:03;;;;;;;10.30;6.80;;;15.20;99.90;;;;;;5094590;28;20610;-79
2023/08/30 03:51:29;;;;;;;9.87;6.40;;;15.20;99.90;;;;;;5094088;28;20176;-79
2023/08/30 03:53:58;;;;;;;10.07;7.17;;;15.30;99.90;;;;;;5095909;28;20306;-79
2023/08/30 03:56:23;;;;;;;8.63;6.37;;;15.30;99.90;;;;;;5095559;28;20624;-79
2023/08/30 03:58:49;;;;;;;9.03;6.13;;;15.30;99.90;;;;;;5095644;28;20179;-79
2023/08/30 04:01:15;;;;;;;11.33;6.33;;;15.30;99.90;;;;;;5095821;28;20182;-79
2023/08/30 04:03:40;;;;;;;8.33;6.40;;;15.30;99.90;;;;;;5095427;28;20179;-79
2023/08/30 04:06:06;;;;;;;10.07;6.67;;;15.20;99.90;;;;;;5095363;28;20217;-79
2023/08/30 04:08:32;;;;;;;10.57;6.60;;;15.20;99.90;;;;;;5095547;28;20168;-79
2023/08/30 04:10:58;;;;;;;11.07;6.37;;;15.20;99.90;;;;;;5095117;28;20636;-78
2023/08/30 04:13:24;;;;;;;9.90;6.30;;;15.30;99.90;;;;;;5095280;28;20257;-78
2023/08/30 04:15:50;;;;;;;9.10;6.10;;;15.40;99.90;;;;;;5094010;28;20565;-79
2023/08/30 04:18:16;;;;;;;9.17;6.20;;;15.30;99.90;;;;;;5094823;28;20164;-79
2023/08/30 04:20:46;;;;;;;13.80;6.47;;;15.20;99.90;;;;;;5094931;28;20229;-79
2023/08/30 04:23:12;;;;;;;8.13;5.70;;;15.30;99.90;;;;;;5095269;28;20172;-78
2023/08/30 04:25:38;;;;;;;11.27;6.53;;;15.30;99.90;;;;;;5094907;28;20164;-79
2023/08/30 04:28:04;;;;;;;9.07;6.43;;;15.30;99.90;;;;;;5094989;28;20179;-79
2023/08/30 04:30:30;;;;;;;9.00;6.43;;;15.30;99.90;;;;;;5094600;28;20280;-79
2023/08/30 04:32:55;;;;;;;9.23;6.43;;;15.30;99.90;;;;;;5094774;28;20230;-79
2023/08/30 04:35:21;;;;;;;8.27;5.70;;;15.20;99.90;;;;;;5094509;28;20175;-78
2023/08/30 04:37:48;;;;;;;8.63;6.03;;;15.10;99.90;;;;;;5095029;28;20178;-80
2023/08/30 04:40:14;;;;;;;10.47;6.20;;;15.10;99.90;;;;;;5094520;28;20184;-79
2023/08/30 04:42:40;;;;;;;6.90;5.43;;;15.00;99.90;;;;;;5094476;28;20198;-79
2023/08/30 04:45:07;;;;;;;10.00;6.37;;;14.90;99.90;;;;;;5094858;28;20172;-79
2023/08/30 04:47:33;;;;;;;6.97;6.17;;;14.90;99.90;;;;;;5094754;28;20176;-79
2023/08/30 04:49:59;;;;;;;9.17;6.50;;;14.80;99.90;;;;;;5094195;28;20187;-80
2023/08/30 04:52:24;;;;;;;9.77;6.47;;;14.70;99.90;;;;;;5093889;28;20335;-78
2023/08/30 04:54:50;;;;;;;9.73;6.33;;;14.70;99.90;;;;;;5094284;28;20207;-80
2023/08/30 04:57:16;;;;;;;8.17;6.40;;;14.60;99.90;;;;;;5094467;28;20627;-79
2023/08/30 04:59:43;;;;;;;10.23;6.73;;;14.60;99.90;;;;;;5093887;28;20182;-80
2023/08/30 05:02:09;;;;;;;11.57;6.60;;;14.70;99.90;;;;;;5094622;28;20225;-79
2023/08/30 05:04:34;;;;;;;10.60;6.40;;;14.70;99.90;;;;;;5093866;28;20180;-79
2023/08/30 05:07:00;;;;;;;11.13;6.60;;;14.60;99.90;;;;;;5094238;28;20221;-79
2023/08/30 05:09:26;;;;;;;11.43;6.97;;;14.60;99.90;;;;;;5094166;28;20175;-79
2023/08/30 05:11:53;;;;;;;11.90;7.03;;;14.50;99.90;;;;;;5094372;28;20570;-79
2023/08/30 05:14:19;;;;;;;12.43;7.13;;;14.40;99.90;;;;;;5093779;28;20230;-79
2023/08/30 05:16:45;;;;;;;11.23;7.50;;;14.40;99.90;;;;;;5093778;28;20164;-79
2023/08/30 05:19:10;;;;;;;10.07;7.10;;;14.40;99.90;;;;;;5093520;28;20223;-79
2023/08/30 05:21:36;;;;;;;11.47;7.53;;;14.40;99.90;;;;;;5093828;28;20168;-79
2023/08/30 05:24:02;;;;;;;13.43;8.87;;;14.40;99.90;;;;;;5093824;28;20577;-78
2023/08/30 05:26:28;;;;;;;17.57;9.43;;;14.40;99.90;;;;;;5092575;28;20172;-80
2023/08/30 05:28:53;;;;;;;18.10;10.13;;;14.30;99.90;;;;;;5091984;28;20346;-78
2023/08/30 05:31:19;;;;;;;22.07;10.90;;;14.40;99.90;;;;;;5093421;28;20197;-80
2023/08/30 05:33:45;;;;;;;16.27;10.33;;;14.30;99.90;;;;;;5092989;28;20733;-80
2023/08/30 05:36:10;;;;;;;14.30;10.07;;;14.30;99.90;;;;;;5093908;28;20635;-79
2023/08/30 05:38:36;;;;;;;10.73;8.13;;;14.30;99.90;;;;;;5093342;28;20195;-80
2023/08/30 05:41:02;;;;;;;12.73;8.67;;;14.30;99.90;;;;;;5092886;28;20191;-79
2023/08/30 05:43:27;;;;;;;13.40;8.90;;;14.30;99.90;;;;;;5093175;28;20301;-79
2023/08/30 05:45:53;;;;;;;11.37;8.00;;;14.40;99.90;;;;;;5092782;28;20175;-79
2023/08/30 05:48:19;;;;;;;10.13;7.40;;;14.40;99.90;;;;;;5093020;28;20654;-79
2023/08/30 05:50:45;;;;;;;9.73;6.80;;;14.30;99.90;;;;;;5093190;28;20221;-79
2023/08/30 05:53:11;;;;;;;9.17;7.17;;;14.30;99.90;;;;;;5093478;28;20192;-80
2023/08/30 05:55:37;;;;;;;8.23;6.97;;;14.30;99.90;;;;;;5093280;28;20261;-79
2023/08/30 05:58:03;;;;;;;7.70;6.73;;;14.40;99.90;;;;;;5092705;28;20164;-79
2023/08/30 06:00:28;;;;;;;8.90;7.00;;;14.40;99.90;;;;;;5093035;28;20670;-80
2023/08/30 06:02:54;;;;;;;7.20;6.43;;;14.50;99.90;;;;;;5092473;28;20172;-80
2023/08/30 06:05:20;;;;;;;6.27;5.73;;;14.50;99.90;;;;;;5093021;28;20238;-80
2023/08/30 06:07:45;;;;;;;9.63;6.37;;;14.60;99.90;;;;;;5092972;28;20180;-80
2023/08/30 06:10:13;;;;;;;7.73;6.20;;;14.60;99.90;;;;;;5093046;28;20168;-80
2023/08/30 06:12:38;;;;;;;8.07;6.23;;;14.70;99.90;;;;;;5092388;28;20180;-80
2023/08/30 06:15:04;;;;;;;7.93;5.80;;;14.80;99.90;;;;;;5093182;28;20178;-81
2023/08/30 06:17:30;;;;;;;7.03;5.60;;;14.90;99.90;;;;;;5092266;28;20172;-80
2023/08/30 06:19:56;;;;;;;10.00;6.30;;;14.90;99.90;;;;;;5092303;28;20277;-80
2023/08/30 06:22:21;;;;;;;8.63;5.23;;;14.90;99.90;;;;;;5093394;28;20254;-80
2023/08/30 06:24:47;;;;;;;8.43;5.27;;;15.00;99.90;;;;;;5092862;28;20624;-78
2023/08/30 06:27:12;;;;;;;6.33;5.57;;;15.10;99.90;;;;;;5092507;28;20581;-78
2023/08/30 06:29:38;;;;;;;6.33;5.73;;;15.00;99.90;;;;;;5092647;28;20171;-78
2023/08/30 06:32:04;;;;;;;6.63;5.53;;;15.00;99.90;;;;;;5092251;28;20182;-78
2023/08/30 06:34:30;;;;;;;6.53;5.93;;;15.00;99.90;;;;;;5092633;28;20663;-77
2023/08/30 06:36:56;;;;;;;8.67;6.43;;;14.90;99.90;;;;;;5092463;28;20210;-76
2023/08/30 06:39:22;;;;;;;8.57;6.50;;;14.80;99.90;;;;;;5090862;28;20230;-78
2023/08/30 06:41:47;;;;;;;10.20;6.40;;;14.60;99.90;;;;;;5092557;28;20247;-76
2023/08/30 06:44:13;;;;;;;7.43;6.50;;;14.50;99.90;;;;;;5092671;28;20262;-76
2023/08/30 06:46:39;;;;;;;8.17;6.30;;;14.50;99.90;;;;;;5091930;28;20176;-77
2023/08/30 06:49:05;;;;;;;9.80;6.90;;;14.40;99.90;;;;;;5094730;28;20176;-78
2023/08/30 06:51:31;;;;;;;7.30;6.60;;;14.40;99.90;;;;;;5095373;28;20165;-78
2023/08/30 06:54:00;;;;;;;9.40;7.50;;;14.40;99.90;;;;;;5096649;28;20210;-77
2023/08/30 06:56:26;;;;;;;7.80;7.07;;;14.50;99.90;;;;;;5094844;28;20171;-79
2023/08/30 06:58:52;;;;;;;9.93;8.13;;;14.40;99.90;;;;;;5096416;28;20164;-79
2023/08/30 07:01:17;;;;;;;10.60;8.10;;;14.50;99.90;;;;;;5096492;28;20647;-80
2023/08/30 07:03:43;;;;;;;10.13;7.80;;;14.50;99.90;;;;;;5096664;28;20176;-79
2023/08/30 07:06:09;;;;;;;8.90;8.00;;;14.50;99.90;;;;;;5096275;28;20167;-79
2023/08/30 07:08:35;;;;;;;9.13;7.73;;;14.70;99.90;;;;;;5095658;28;20257;-79
2023/08/30 07:11:01;;;;;;;8.37;7.10;;;14.60;99.90;;;;;;5094880;28;20206;-78
2023/08/30 07:13:26;;;;;;;8.47;7.63;;;14.70;99.90;;;;;;5096107;28;20209;-84
2023/08/30 07:15:52;;;;;;;8.17;7.23;;;14.80;99.90;;;;;;5098060;28;20168;-79
2023/08/30 07:18:17;;;;;;;7.90;7.20;;;14.80;99.90;;;;;;5096772;28;20703;-79
2023/08/30 07:20:44;;;;;;;9.57;7.43;;;14.80;99.90;;;;;;5095909;28;20537;-80
2023/08/30 07:23:10;;;;;;;8.63;7.30;;;14.80;99.90;;;;;;5096251;28;20217;-79
2023/08/30 07:25:38;;;;;;;9.37;8.03;;;14.80;99.90;;;;;;5092127;28;20228;-78
2023/08/30 07:28:05;;;;;;;13.67;8.10;;;14.70;99.90;;;;;;5080197;28;20185;-79
2023/08/30 07:30:30;;;;;;;9.23;7.90;;;14.80;99.90;;;;;;5090642;28;20215;-77
2023/08/30 07:32:56;;;;;;;9.20;8.20;;;14.70;99.90;;;;;;5077972;28;20228;-81
2023/08/30 07:35:22;;;;;;;9.37;8.40;;;14.80;99.90;;;;;;5077282;28;20192;-82
2023/08/30 07:37:48;;;;;;;9.90;8.20;;;14.80;99.90;;;;;;5077797;28;20261;-77
2023/08/30 07:40:13;;;;;;;9.57;8.23;;;14.80;99.90;;;;;;5073780;28;20234;-81
2023/08/30 07:42:39;;;;;;;9.47;8.33;;;14.80;99.90;;;;;;5078412;28;20605;-81
2023/08/30 07:45:05;;;;;;;8.37;7.57;;;14.80;99.90;;;;;;5078699;28;20230;-82
2023/08/30 07:47:31;;;;;;;9.33;8.30;;;14.80;99.90;;;;;;5078295;28;20183;-77
2023/08/30 07:49:57;;;;;;;9.67;8.23;;;14.90;99.90;;;;;;5073977;28;20172;-77
2023/08/30 07:52:22;;;;;;;8.47;7.60;;;15.10;99.90;;;;;;5074271;28;20233;-78
2023/08/30 07:54:48;;;;;;;8.20;7.40;;;15.10;99.90;;;;;;5073652;28;20223;-81
2023/08/30 07:57:13;;;;;;;9.03;7.60;;;14.90;99.90;;;;;;5079618;28;20176;-78
2023/08/30 07:59:39;;;;;;;8.23;7.37;;;15.00;99.90;;;;;;5088205;28;20270;-81
2023/08/30 08:02:07;;;;;;;7.97;7.17;;;15.00;99.90;;;;;;5114403;28;20566;-79
2023/08/30 08:04:33;;;;;;;7.60;6.80;;;15.00;99.90;;;;;;5085586;28;20180;-77
2023/08/30 08:06:59;;;;;;;9.67;8.07;;;15.00;99.90;;;;;;5072715;28;20627;-79
2023/08/30 08:09:25;;;;;;;8.80;7.10;;;15.00;99.90;;;;;;5075660;28;20192;-78
2023/08/30 08:11:50;;;;;;;9.03;7.67;;;15.00;99.90;;;;;;5093199;28;20183;-79
2023/08/30 08:14:16;;;;;;;9.40;7.93;;;15.10;99.90;;;;;;5093894;28;20223;-77
2023/08/30 08:16:42;;;;;;;8.60;7.70;;;15.10;99.90;;;;;;5094261;28;20588;-77
2023/08/30 08:19:07;;;;;;;9.10;7.17;;;15.20;99.90;;;;;;5093744;28;20258;-78
2023/08/30 08:21:36;;;;;;;7.00;6.30;;;15.30;99.90;;;;;;5094932;28;20186;-79
2023/08/30 08:24:01;;;;;;;9.23;6.30;;;15.30;99.90;;;;;;5094987;28;20168;-78
2023/08/30 08:26:27;;;;;;;8.53;5.83;;;15.30;99.90;;;;;;5094755;28;20175;-79
2023/08/30 08:28:55;;;;;;;9.33;6.70;;;15.30;99.90;;;;;;5095190;28;20233;-79
2023/08/30 08:31:20;;;;;;;6.93;5.63;;;15.40;99.90;;;;;;5094707;28;20251;-78
2023/08/30 08:33:46;;;;;;;6.03;5.47;;;15.40;99.90;;;;;;5093141;28;20234;-78
2023/08/30 08:36:12;;;;;;;6.77;5.60;;;15.40;99.90;;;;;;5094661;28;20552;-78
2023/08/30 08:38:38;;;;;;;5.77;5.10;;;15.40;99.90;;;;;;5094162;28;20207;-78
2023/08/30 08:41:10;;;;;;;7.77;5.40;;;15.50;99.90;;;;;;5092893;28;20171;-78
2023/08/30 08:43:37;;;;;;;5.80;5.17;;;15.70;99.90;;;;;;5094367;28;20172;-80
2023/08/30 08:46:06;;;;;;;5.93;5.23;;;15.90;99.90;;;;;;5094133;28;20251;-75
2023/08/30 08:48:36;;;;;;;5.87;5.27;;;16.00;99.90;;;;;;5094670;28;20176;-78
2023/08/30 08:51:02;;;;;;;5.87;4.83;;;16.10;99.90;;;;;;5094300;28;20301;-75
2023/08/30 08:53:28;;;;;;;5.53;5.00;;;16.30;99.90;;;;;;5093970;28;20637;-75
2023/08/30 08:55:57;;;;;;;5.30;4.80;;;16.50;99.90;;;;;;5093884;28;20192;-74
2023/08/30 08:58:24;;;;;;;6.70;5.20;;;16.40;99.90;;;;;;5094371;28;20199;-75
2023/08/30 09:00:50;;;;;;;5.57;5.00;;;16.50;99.90;;;;;;5093685;28;20179;-73
2023/08/30 09:03:17;;;;;;;6.40;5.33;;;16.80;99.90;;;;;;5094140;28;20171;-72
2023/08/30 09:05:43;;;;;;;6.70;4.57;;;17.00;99.90;;;;;;5093465;28;20179;-75
2023/08/30 09:08:11;;;;;;;5.93;4.43;;;17.10;99.90;;;;;;5093757;28;20176;-76
2023/08/30 09:10:37;;;;;;;5.70;4.40;;;17.20;99.90;;;;;;5091894;28;20199;-81
2023/08/30 09:13:03;;;;;;;5.20;4.70;;;17.20;99.90;;;;;;5093277;28;20663;-78
2023/08/30 09:15:32;;;;;;;4.83;4.53;;;17.60;99.90;;;;;;5093987;28;20702;-80
2023/08/30 09:17:58;;;;;;;5.53;5.03;;;17.70;99.90;;;;;;5092593;28;20167;-80
2023/08/30 09:20:24;;;;;;;7.23;5.10;;;17.90;99.90;;;;;;5093512;28;20296;-77
2023/08/30 09:22:50;;;;;;;5.87;5.37;;;18.10;99.90;;;;;;5093434;28;20564;-80
2023/08/30 09:25:27;;;;;;;5.60;5.17;;;18.20;99.90;;;;;;5093178;28;20240;-79
2023/08/30 09:27:59;;;;;;;5.97;5.30;;;18.10;99.90;;;;;;5093652;28;20579;-77
2023/08/30 09:30:25;;;;;;;6.37;5.30;;;18.10;99.90;;;;;;5091354;28;20216;-78
2023/08/30 09:32:51;;;;;;;5.72;5.25;;;18.30;99.90;;;;;;5075814;28;20259;-78
2023/08/30 09:35:17;;;;;;;5.97;5.47;;;18.60;99.90;;;;;;5073548;28;20282;-80
2023/08/30 09:37:46;;;;;;;5.75;5.20;;;18.60;99.90;;;;;;5082338;28;20160;-80
2023/08/30 09:40:12;;;;;;;5.80;5.38;;;18.60;99.90;;;;;;5090386;28;20183;-79
2023/08/30 09:42:44;;;;;;;6.20;5.60;;;18.50;99.90;;;;;;5084941;28;20177;-79
2023/08/30 09:45:22;;;;;;;7.70;6.00;;;18.70;99.90;;;;;;5089135;28;20194;-77
2023/08/30 09:47:51;;;;;;;6.85;5.60;;;18.80;99.90;;;;;;5109650;28;20263;-78
2023/08/30 09:50:19;;;;;;;6.32;5.82;;;19.10;99.90;;;;;;5101354;28;20630;-78
2023/08/30 09:52:47;;;;;;;7.65;6.10;;;19.00;99.90;;;;;;5093880;28;20186;-82
2023/08/30 09:55:13;;;;;;;7.90;6.10;;;18.90;99.90;;;;;;5076603;28;20531;-75
2023/08/30 09:57:41;;;;;;;6.63;6.03;;;18.90;99.90;;;;;;5107011;28;20672;-79
2023/08/30 10:00:08;;;;;;;6.47;5.97;;;18.50;99.90;;;;;;5078501;28;20266;-83
2023/08/30 10:02:34;;;;;;;7.93;6.78;;;18.30;99.90;;;;;;5074126;28;20620;-79
2023/08/30 10:05:00;;;;;;;6.82;6.22;;;18.20;99.90;;;;;;5089257;28;20187;-83
2023/08/30 10:07:26;;;;;;;8.40;7.00;;;18.10;99.90;;;;;;5080813;28;20537;-82
2023/08/30 10:09:53;;;;;;;9.20;7.00;;;17.80;99.90;;;;;;5084396;28;20185;-82
2023/08/30 10:12:24;;;;;;;7.73;7.03;;;17.70;99.90;;;;;;5072177;28;20188;-84
2023/08/30 10:14:49;;;;;;;7.57;6.82;;;17.70;99.90;;;;;;5092037;28;20211;-83
2023/08/30 10:17:18;;;;;;;8.07;7.27;;;17.70;99.90;;;;;;5088503;28;20191;-79
2023/08/30 10:19:45;;;;;;;8.10;7.40;;;17.60;99.90;;;;;;5079320;28;20227;-83
2023/08/30 10:22:17;;;;;;;7.57;6.97;;;17.50;99.90;;;;;;5080428;28;20631;-81
2023/08/30 10:24:48;;;;;;;8.40;7.47;;;17.60;99.90;;;;;;5085196;28;20198;-78
2023/08/30 10:27:15;;;;;;;7.10;6.50;;;17.60;99.90;;;;;;5074067;28;20203;-80
2023/08/30 10:29:43;;;;;;;7.20;6.55;;;18.00;99.90;;;;;;5089282;28;20180;-82
2023/08/30 10:32:09;;;;;;;7.40;6.57;;;18.20;99.90;;;;;;5080362;28;20352;-77
2023/08/30 10:34:36;;;;;;;7.85;7.15;;;18.70;99.90;;;;;;5084142;28;20668;-77
2023/08/30 10:37:11;;;;;;;7.28;6.68;;;18.80;99.90;;;;;;5069597;28;20199;-84
2023/08/30 10:39:39;;;;;;;7.40;6.80;;;18.90;99.90;;;;;;5087198;28;20191;-79
2023/08/30 10:42:13;;;;;;;7.68;6.68;;;19.10;99.90;;;;;;5086061;28;20168;-82
2023/08/30 10:44:52;;;;;;;6.85;6.25;;;19.20;99.90;;;;;;5089075;28;20174;-83
2023/08/30 10:47:20;;;;;;;7.50;6.75;;;19.70;99.90;;;;;;5081070;28;20194;-85
2023/08/30 10:49:48;;;;;;;8.15;7.07;;;19.60;99.90;;;;;;5073961;28;20377;-79
2023/08/30 10:52:13;;;;;;;7.35;6.75;;;19.60;99.90;;;;;;5073470;28;20183;-83
2023/08/30 10:54:39;;;;;;;7.85;6.85;;;20.00;99.90;;;;;;5076469;28;20216;-76
2023/08/30 10:57:05;;;;;;;6.53;5.97;;;20.10;99.90;;;;;;5077380;28;20172;-78
2023/08/30 10:59:30;;;;;;;7.82;7.03;;;20.20;99.90;;;;;;5087201;28;20643;-76
2023/08/30 11:02:00;;;;;;;6.50;6.00;;;20.20;99.90;;;;;;5079057;28;20189;-79
2023/08/30 11:04:26;;;;;;;8.43;6.93;;;20.10;99.90;;;;;;5095499;28;20186;-74
2023/08/30 11:06:52;;;;;;;7.55;6.85;;;20.10;99.90;;;;;;5082419;28;20180;-77
2023/08/30 11:09:19;;;;;;;7.10;6.47;;;20.10;99.90;;;;;;5096659;28;20198;-80
2023/08/30 11:11:46;;;;;;;6.97;6.38;;;20.20;99.90;;;;;;5095562;28;20195;-81
2023/08/30 11:14:12;;;;;;;6.97;5.95;;;20.30;99.90;;;;;;5083123;28;20670;-79
2023/08/30 11:16:38;;;;;;;7.65;6.95;;;20.60;99.90;;;;;;5107095;28;20253;-75
2023/08/30 11:19:05;;;;;;;6.60;6.00;;;21.00;99.90;;;;;;5093621;28;20231;-76
2023/08/30 11:21:33;;;;;;;6.28;5.72;;;21.70;99.90;;;;;;5081272;28;20176;-78
2023/08/30 11:23:59;;;;;;;7.88;6.50;;;21.50;99.90;;;;;;5088040;28;20203;-77
2023/08/30 11:26:25;;;;;;;6.90;5.97;;;21.70;99.90;;;;;;5090195;28;20631;-77
2023/08/30 11:28:52;;;;;;;7.18;5.85;;;22.20;99.90;;;;;;5086467;28;20577;-74
2023/08/30 11:31:27;;;;;;;6.07;5.53;;;22.60;99.90;;;;;;5100322;28;20179;-73
2023/08/30 11:33:55;;;;;;;8.77;5.15;;;22.90;99.90;;;;;;5083068;28;20203;-77
2023/08/30 11:36:22;;;;;;;7.07;3.97;;;22.90;99.90;;;;;;5082905;28;20203;-77
2023/08/30 11:38:49;;;;;;;6.38;3.15;;;22.50;99.90;;;;;;5078582;28;20188;-77
2023/08/30 11:41:15;;;;;;;6.82;3.25;;;22.20;99.90;;;;;;5093214;28;20268;-78
2023/08/30 11:43:40;;;;;;;6.78;3.17;;;21.90;99.90;;;;;;5096699;28;20179;-83
2023/08/30 11:46:07;;;;;;;4.38;2.72;;;22.30;99.90;;;;;;5106428;28;20179;-81
2023/08/30 11:48:34;;;;;;;4.32;2.65;;;22.50;99.90;;;;;;5097156;28;20230;-76
2023/08/30 11:51:00;;;;;;;7.40;2.40;;;22.70;99.90;;;;;;5096770;28;20615;-76
2023/08/30 11:53:26;;;;;;;4.53;2.70;;;23.30;99.00;;;;;;5090890;28;20221;-78
2023/08/30 11:55:53;;;;;;;6.30;2.97;;;23.40;97.70;;;;;;5088174;28;20169;-74
2023/08/30 11:58:19;;;;;;;6.72;2.58;;;22.90;96.90;;;;;;5084195;28;20299;-75
2023/08/30 12:00:45;;;;;;;4.47;2.72;;;22.80;98.60;;;;;;5086215;28;20322;-83
2023/08/30 12:03:15;;;;;;;6.50;2.40;;;22.70;99.30;;;;;;5076794;28;20255;-77
2023/08/30 12:05:47;;;;;;;5.93;2.45;;;22.50;99.90;;;;;;5102478;28;20201;-80
2023/08/30 12:08:27;;;;;;;3.78;2.55;;;22.10;97.20;;;;;;5085225;28;20186;-77
2023/08/30 12:10:54;;;;;;;8.50;2.45;;;22.00;97.00;;;;;;5074190;28;20177;-76
2023/08/30 12:13:26;;;;;;;4.82;2.53;;;22.00;97.40;;;;;;5099806;28;20236;-77
2023/08/30 12:15:53;;;;;;;6.68;3.00;;;22.00;98.50;;;;;;5096314;28;20206;-74
2023/08/30 12:18:28;;;;;;;4.40;2.58;;;21.90;96.40;;;;;;5087330;28;20214;-78
2023/08/30 12:20:53;;;;;;;4.15;2.40;;;22.10;96.70;;;;;;5102196;28;20189;-77
2023/08/30 12:23:20;;;;;;;7.80;2.65;;;22.00;95.80;;;;;;5080602;28;20165;-78
2023/08/30 12:26:00;;;;;;;6.28;2.33;;;21.90;96.30;;;;;;5110067;28;20239;-81
2023/08/30 12:28:29;;;;;;;6.00;2.28;;;21.40;95.40;;;;;;5084927;28;20167;-78
2023/08/30 12:30:57;;;;;;;5.78;2.50;;;21.70;96.50;;;;;;5084255;28;20172;-80
2023/08/30 12:33:25;;;;;;;6.18;2.78;;;22.10;96.60;;;;;;5078573;28;20212;-75
2023/08/30 12:35:51;;;;;;;6.70;2.60;;;22.20;95.80;;;;;;5091916;28;20168;-78
2023/08/30 12:38:19;;;;;;;8.18;3.13;;;22.40;94.60;;;;;;5109852;28;20218;-74
2023/08/30 12:40:46;;;;;;;8.20;2.80;;;22.50;94.40;;;;;;5093596;28;20638;-75
2023/08/30 12:43:13;;;;;;;8.35;2.70;;;22.50;93.70;;;;;;5096593;28;20258;-74